Time;durP1;ratioP1;P1;durP2;ratioP2;P2;SDS_P1;SDS_P2;PMS_P1;PMS_P2;Temp;Humidity;BMP_temperature;BMP_pressure;BME280_temperature;BME280_humidity;BME280_pressure;Samples;Min_cycle;Max_cycle;Signal;HPM_P1;HPM_P2
2024/02/02 00:02:24;;;;;;;292.00;280.17;;;4.50;99.90;;;;;;4973266;28;20481;-70
2024/02/02 00:04:52;;;;;;;272.60;260.67;;;4.50;99.90;;;;;;4975510;28;20462;-70
2024/02/02 00:07:19;;;;;;;264.07;253.30;;;4.50;99.90;;;;;;4954071;28;20455;-70
2024/02/02 00:09:46;;;;;;;250.77;240.77;;;4.50;99.90;;;;;;4959218;28;20454;-70
2024/02/02 00:12:13;;;;;;;236.10;227.00;;;4.50;99.90;;;;;;4971894;28;20479;-70
2024/02/02 00:14:40;;;;;;;228.37;219.77;;;4.50;99.90;;;;;;4954258;28;20455;-70
2024/02/02 00:17:07;;;;;;;216.00;207.70;;;4.50;99.90;;;;;;4953821;28;20466;-70
2024/02/02 00:19:34;;;;;;;218.47;210.17;;;4.50;99.90;;;;;;4965497;28;20483;-70
2024/02/02 00:22:02;;;;;;;216.97;208.27;;;4.50;99.90;;;;;;4973062;28;20459;-70
2024/02/02 00:24:29;;;;;;;216.13;207.67;;;4.50;99.90;;;;;;4973076;28;20981;-70
2024/02/02 00:26:55;;;;;;;208.40;199.20;;;4.60;99.90;;;;;;4981168;28;20455;-70
2024/02/02 00:29:22;;;;;;;202.47;194.17;;;4.60;99.90;;;;;;4975606;28;20541;-70
2024/02/02 00:31:49;;;;;;;195.73;188.27;;;4.60;99.90;;;;;;4964770;28;20464;-70
2024/02/02 00:34:16;;;;;;;182.53;174.87;;;4.60;99.90;;;;;;4953986;28;20456;-70
2024/02/02 00:36:43;;;;;;;175.50;166.40;;;4.60;99.90;;;;;;4960906;28;20554;-70
2024/02/02 00:39:11;;;;;;;160.43;153.20;;;4.60;99.90;;;;;;4977072;28;20459;-70
2024/02/02 00:41:37;;;;;;;156.73;150.03;;;4.60;99.90;;;;;;4975754;28;20486;-70
2024/02/02 00:44:06;;;;;;;155.33;148.63;;;4.60;99.90;;;;;;4976870;28;20505;-70
2024/02/02 00:46:32;;;;;;;153.27;145.70;;;4.60;99.90;;;;;;4972728;28;20203;-70
2024/02/02 00:48:59;;;;;;;178.17;170.33;;;4.60;99.90;;;;;;4988181;28;20456;-70
2024/02/02 00:51:26;;;;;;;205.57;197.67;;;4.70;99.90;;;;;;4958088;28;20463;-70
2024/02/02 00:53:53;;;;;;;218.27;210.37;;;4.60;99.90;;;;;;4957323;28;20483;-70
2024/02/02 00:56:23;;;;;;;237.33;228.63;;;4.70;99.90;;;;;;4957284;28;20546;-70
2024/02/02 00:58:50;;;;;;;260.00;250.17;;;4.70;99.90;;;;;;4973036;28;20548;-70
2024/02/02 01:01:17;;;;;;;276.17;265.47;;;4.70;99.90;;;;;;4974719;28;20486;-70
2024/02/02 01:03:44;;;;;;;293.03;281.97;;;4.70;99.90;;;;;;4976443;28;20479;-70
2024/02/02 01:06:11;;;;;;;294.73;282.67;;;4.60;99.90;;;;;;4975712;28;20456;-70
2024/02/02 01:08:37;;;;;;;288.37;277.97;;;4.60;99.90;;;;;;4973523;28;20457;-70
2024/02/02 01:11:04;;;;;;;288.77;277.70;;;4.60;99.90;;;;;;4963898;28;20458;-70
2024/02/02 01:13:33;;;;;;;282.40;272.00;;;4.60;99.90;;;;;;4956840;28;20540;-70
2024/02/02 01:15:59;;;;;;;283.57;271.70;;;4.60;99.90;;;;;;4956848;28;20550;-70
2024/02/02 01:18:26;;;;;;;284.73;272.80;;;4.60;99.90;;;;;;4956550;28;20473;-70
2024/02/02 01:20:53;;;;;;;273.07;262.37;;;4.60;99.90;;;;;;4956278;28;20488;-70
2024/02/02 01:23:20;;;;;;;255.37;245.13;;;4.60;99.90;;;;;;4956635;28;20475;-70
2024/02/02 01:25:47;;;;;;;232.70;223.37;;;4.60;99.90;;;;;;4970077;28;20959;-70
2024/02/02 01:28:13;;;;;;;215.10;205.80;;;4.60;99.90;;;;;;4975870;28;20963;-70
2024/02/02 01:30:41;;;;;;;215.97;205.57;;;4.60;99.90;;;;;;4975881;28;20531;-70
2024/02/02 01:33:08;;;;;;;219.90;210.57;;;4.50;99.90;;;;;;4975959;28;20478;-70
2024/02/02 01:35:35;;;;;;;245.07;234.77;;;4.50;99.90;;;;;;4975035;28;20843;-70
2024/02/02 01:38:02;;;;;;;282.07;270.87;;;4.40;99.90;;;;;;4983254;28;20458;-70
2024/02/02 01:40:29;;;;;;;295.97;283.97;;;4.40;99.90;;;;;;4970888;28;20482;-70
2024/02/02 01:42:55;;;;;;;305.57;293.33;;;4.50;99.90;;;;;;4965405;28;20479;-70
2024/02/02 01:45:22;;;;;;;312.03;299.70;;;4.60;99.90;;;;;;4956481;28;20455;-71
2024/02/02 01:47:50;;;;;;;345.67;331.27;;;4.60;99.90;;;;;;4955691;28;20466;-71
2024/02/02 01:50:17;;;;;;;344.10;330.47;;;4.60;99.90;;;;;;4956292;28;20456;-70
2024/02/02 01:52:44;;;;;;;341.13;327.37;;;4.70;99.90;;;;;;4961440;28;20479;-70
2024/02/02 01:55:11;;;;;;;324.37;311.80;;;4.70;99.90;;;;;;4975792;28;20939;-70
2024/02/02 01:57:37;;;;;;;313.57;300.97;;;4.80;99.90;;;;;;4975271;28;20463;-71
2024/02/02 02:00:05;;;;;;;308.67;296.77;;;4.70;99.90;;;;;;4975435;28;20894;-70
2024/02/02 02:02:32;;;;;;;313.30;301.33;;;4.70;99.90;;;;;;4970844;28;20572;-71
2024/02/02 02:05:00;;;;;;;321.27;308.47;;;4.60;99.90;;;;;;4964749;28;20452;-71
2024/02/02 02:07:28;;;;;;;342.57;328.37;;;4.50;99.90;;;;;;4955846;28;20458;-71
2024/02/02 02:09:54;;;;;;;368.80;354.30;;;4.40;99.90;;;;;;4956087;28;20456;-70
2024/02/02 02:12:21;;;;;;;397.43;380.13;;;4.30;99.90;;;;;;4955598;28;20483;-70
2024/02/02 02:14:48;;;;;;;435.33;416.67;;;4.30;99.90;;;;;;4961347;28;20450;-70
2024/02/02 02:17:15;;;;;;;454.23;432.87;;;4.30;99.90;;;;;;4975376;28;20465;-71
2024/02/02 02:19:42;;;;;;;468.03;444.77;;;4.40;99.90;;;;;;4974892;28;21035;-70
2024/02/02 02:22:10;;;;;;;467.90;447.10;;;4.50;99.90;;;;;;4982519;28;20870;-71
2024/02/02 02:24:36;;;;;;;461.13;439.67;;;4.60;99.90;;;;;;4959869;28;20454;-70
2024/02/02 02:27:04;;;;;;;455.13;434.27;;;4.60;99.90;;;;;;4974767;28;20455;-70
2024/02/02 02:29:31;;;;;;;453.60;432.90;;;4.70;99.90;;;;;;4977877;28;20462;-70
2024/02/02 02:31:58;;;;;;;436.90;418.07;;;4.80;99.90;;;;;;4978966;28;20455;-70
2024/02/02 02:34:26;;;;;;;429.60;410.73;;;4.90;99.90;;;;;;4974759;28;20459;-70
2024/02/02 02:36:53;;;;;;;411.87;394.23;;;4.90;99.90;;;;;;4974530;28;20497;-71
2024/02/02 02:39:22;;;;;;;389.43;372.73;;;5.00;99.90;;;;;;4974629;28;20836;-70
2024/02/02 02:41:49;;;;;;;371.47;356.80;;;5.00;99.90;;;;;;4974391;28;20933;-71
2024/02/02 02:44:16;;;;;;;349.47;335.10;;;5.10;99.90;;;;;;4974256;28;20546;-70
2024/02/02 02:46:43;;;;;;;343.90;330.57;;;5.30;99.90;;;;;;4974749;28;20455;-71
2024/02/02 02:49:09;;;;;;;320.77;308.07;;;5.20;99.90;;;;;;4982065;28;20516;-70
2024/02/02 02:51:36;;;;;;;304.23;291.97;;;5.20;99.90;;;;;;4954950;28;20940;-71
2024/02/02 02:54:03;;;;;;;281.20;270.40;;;5.20;99.90;;;;;;4970574;28;20475;-71
2024/02/02 02:56:31;;;;;;;270.57;260.57;;;5.20;99.90;;;;;;4974242;28;20538;-71
2024/02/02 02:58:58;;;;;;;265.13;255.10;;;5.30;99.90;;;;;;4974554;28;20478;-71
2024/02/02 03:01:25;;;;;;;254.37;243.30;;;5.30;99.90;;;;;;4954343;28;20939;-71
2024/02/02 03:03:51;;;;;;;239.60;229.33;;;5.30;99.90;;;;;;4954883;28;20483;-71
2024/02/02 03:06:18;;;;;;;222.43;213.93;;;5.30;99.90;;;;;;4980842;28;21153;-70
2024/02/02 03:08:45;;;;;;;217.17;208.00;;;5.30;99.90;;;;;;4976849;28;20538;-71
2024/02/02 03:11:13;;;;;;;190.00;181.80;;;5.30;99.90;;;;;;4954311;28;20458;-71
2024/02/02 03:13:41;;;;;;;184.97;177.30;;;5.30;99.90;;;;;;4959433;28;20510;-71
2024/02/02 03:16:08;;;;;;;158.03;151.20;;;5.40;99.90;;;;;;4974021;28;20454;-71
2024/02/02 03:18:35;;;;;;;134.57;127.83;;;5.50;99.90;;;;;;4978182;28;20464;-70
2024/02/02 03:21:02;;;;;;;119.43;112.93;;;5.40;99.90;;;;;;4954498;28;20853;-70
2024/02/02 03:23:28;;;;;;;109.97;104.67;;;5.50;99.90;;;;;;4973528;28;20479;-71
2024/02/02 03:25:55;;;;;;;98.97;94.37;;;5.40;99.90;;;;;;4975254;28;20460;-70
2024/02/02 03:28:22;;;;;;;94.03;89.90;;;5.50;99.90;;;;;;4956819;28;20459;-71
2024/02/02 03:30:50;;;;;;;89.40;84.00;;;5.50;99.90;;;;;;4973718;28;20891;-71
2024/02/02 03:33:17;;;;;;;69.20;65.20;;;5.50;99.90;;;;;;4973800;28;20482;-70
2024/02/02 03:35:44;;;;;;;66.00;61.67;;;5.40;99.90;;;;;;4973700;28;20970;-70
2024/02/02 03:38:11;;;;;;;60.70;57.33;;;5.50;99.90;;;;;;4981538;28;20529;-71
2024/02/02 03:40:37;;;;;;;55.17;51.37;;;5.50;99.90;;;;;;4977549;28;20482;-71
2024/02/02 03:43:04;;;;;;;52.87;48.53;;;5.50;99.90;;;;;;4961302;28;20491;-71
2024/02/02 03:45:32;;;;;;;53.03;47.70;;;5.50;99.90;;;;;;4970343;28;20466;-71
2024/02/02 03:48:00;;;;;;;52.33;48.80;;;5.50;99.90;;;;;;4954123;28;20551;-71
2024/02/02 03:50:27;;;;;;;58.93;54.47;;;5.50;99.90;;;;;;4953818;28;20456;-71
2024/02/02 03:52:55;;;;;;;59.33;55.10;;;5.50;99.90;;;;;;4968235;28;20521;-71
2024/02/02 03:55:22;;;;;;;60.33;56.57;;;5.50;99.90;;;;;;4975344;28;20497;-71
2024/02/02 03:57:49;;;;;;;69.03;64.40;;;5.40;99.90;;;;;;4965278;28;20554;-71
2024/02/02 04:00:16;;;;;;;71.80;67.60;;;5.40;99.90;;;;;;4977724;28;20465;-70
2024/02/02 04:02:45;;;;;;;74.90;70.50;;;5.40;99.90;;;;;;4953872;28;20562;-71
2024/02/02 04:05:15;;;;;;;81.47;76.07;;;5.40;99.90;;;;;;4954353;28;20502;-70
2024/02/02 04:07:42;;;;;;;83.97;79.20;;;5.40;99.90;;;;;;4953924;28;20447;-71
2024/02/02 04:10:09;;;;;;;84.37;78.87;;;5.40;99.90;;;;;;4962169;28;20497;-70
2024/02/02 04:12:37;;;;;;;77.27;73.27;;;5.40;99.90;;;;;;4977025;28;20967;-70
2024/02/02 04:15:05;;;;;;;75.10;70.83;;;5.40;99.90;;;;;;4985161;28;20496;-70
2024/02/02 04:17:32;;;;;;;78.03;73.27;;;5.40;99.90;;;;;;4969292;28;20466;-71
2024/02/02 04:19:59;;;;;;;74.50;70.17;;;5.30;99.90;;;;;;4978001;28;20459;-70
2024/02/02 04:22:27;;;;;;;86.83;82.80;;;5.30;99.90;;;;;;4957469;28;20493;-70
2024/02/02 04:24:53;;;;;;;102.40;96.40;;;5.30;99.90;;;;;;4972374;28;20468;-70
2024/02/02 04:27:20;;;;;;;96.53;91.30;;;5.30;99.90;;;;;;4983294;28;20529;-70
2024/02/02 04:29:47;;;;;;;89.53;83.90;;;5.30;99.90;;;;;;4957587;28;20456;-70
2024/02/02 04:32:14;;;;;;;83.93;78.47;;;5.30;99.90;;;;;;4966675;28;20478;-70
2024/02/02 04:34:41;;;;;;;94.47;89.57;;;5.30;99.90;;;;;;4976768;28;20680;-70
2024/02/02 04:37:07;;;;;;;102.50;96.70;;;5.30;99.90;;;;;;4976783;28;20465;-71
2024/02/02 04:39:36;;;;;;;97.33;92.33;;;5.30;99.90;;;;;;4976491;28;20950;-70
2024/02/02 04:42:03;;;;;;;98.40;92.40;;;5.30;99.90;;;;;;4976643;28;20932;-71
2024/02/02 04:44:30;;;;;;;97.10;91.93;;;5.30;99.90;;;;;;4973603;28;20456;-71
2024/02/02 04:46:57;;;;;;;109.90;103.60;;;5.30;99.90;;;;;;4957265;28;20467;-71
2024/02/02 04:49:24;;;;;;;108.57;101.77;;;5.20;99.90;;;;;;4967514;28;20462;-71
2024/02/02 04:51:50;;;;;;;111.33;105.23;;;5.20;99.90;;;;;;4976502;28;20450;-71
2024/02/02 04:54:17;;;;;;;120.00;113.63;;;5.20;99.90;;;;;;4976597;28;20454;-71
2024/02/02 04:56:45;;;;;;;133.13;126.47;;;5.20;99.90;;;;;;4981846;28;20454;-71
2024/02/02 04:59:12;;;;;;;156.63;149.17;;;5.10;99.90;;;;;;4970701;28;20462;-71
2024/02/02 05:01:39;;;;;;;162.63;153.73;;;5.10;99.90;;;;;;4979665;28;20491;-71
2024/02/02 05:04:06;;;;;;;163.70;155.63;;;5.20;99.90;;;;;;4964914;28;20479;-71
2024/02/02 05:06:33;;;;;;;167.67;159.40;;;5.20;99.90;;;;;;4984393;28;20954;-71
2024/02/02 05:09:00;;;;;;;168.63;160.13;;;5.20;99.90;;;;;;4976372;28;20454;-71
2024/02/02 05:11:26;;;;;;;159.40;151.57;;;5.20;99.90;;;;;;4976085;28;20458;-71
2024/02/02 05:13:54;;;;;;;145.40;138.50;;;5.30;99.90;;;;;;4982667;28;20473;-71
2024/02/02 05:16:21;;;;;;;155.47;148.43;;;5.30;99.90;;;;;;4959119;28;20455;-71
2024/02/02 05:18:48;;;;;;;154.37;146.63;;;5.40;99.90;;;;;;4957028;28;20455;-71
2024/02/02 05:21:15;;;;;;;140.17;133.30;;;5.30;99.90;;;;;;4956302;28;20519;-71
2024/02/02 05:23:42;;;;;;;117.90;111.80;;;5.30;99.90;;;;;;4955445;28;20479;-71
2024/02/02 05:26:09;;;;;;;91.27;86.30;;;5.30;99.90;;;;;;4956605;28;20459;-71
2024/02/02 05:28:36;;;;;;;69.60;64.80;;;5.40;99.90;;;;;;4968550;28;20462;-71
2024/02/02 05:31:04;;;;;;;67.80;63.70;;;5.40;99.90;;;;;;4975818;28;20519;-71
2024/02/02 05:33:31;;;;;;;69.70;65.07;;;5.30;99.90;;;;;;4979266;28;20528;-71
2024/02/02 05:35:58;;;;;;;67.80;63.70;;;5.30;99.90;;;;;;4965286;28;20478;-71
2024/02/02 05:38:24;;;;;;;67.00;62.70;;;5.30;99.90;;;;;;4974592;28;20465;-71
2024/02/02 05:40:51;;;;;;;56.00;52.63;;;5.30;99.90;;;;;;4975282;28;20455;-71
2024/02/02 05:43:18;;;;;;;52.10;48.90;;;5.30;99.90;;;;;;4975166;28;20479;-71
2024/02/02 05:45:45;;;;;;;47.77;43.37;;;5.40;99.90;;;;;;4975636;28;20486;-71
2024/02/02 05:48:13;;;;;;;37.20;34.00;;;5.40;99.90;;;;;;4971458;28;20479;-72
2024/02/02 05:50:39;;;;;;;41.33;37.97;;;5.40;99.90;;;;;;4955999;28;20468;-71
2024/02/02 05:53:06;;;;;;;38.97;35.10;;;5.50;99.90;;;;;;4971822;28;20515;-71
2024/02/02 05:55:33;;;;;;;36.40;31.80;;;5.60;99.90;;;;;;4955852;28;20955;-71
2024/02/02 05:58:00;;;;;;;31.93;25.07;;;5.50;99.90;;;;;;4978070;28;20821;-72
2024/02/02 06:00:26;;;;;;;24.33;21.73;;;5.50;99.90;;;;;;4975612;28;21184;-72
2024/02/02 06:02:53;;;;;;;30.00;19.90;;;5.50;99.90;;;;;;4976382;28;21007;-71
2024/02/02 06:05:21;;;;;;;23.90;17.23;;;5.50;99.90;;;;;;4955668;28;20832;-71
2024/02/02 06:07:48;;;;;;;25.67;18.57;;;5.40;99.90;;;;;;4955667;28;20467;-71
2024/02/02 06:10:15;;;;;;;20.80;18.67;;;5.40;99.90;;;;;;4972460;28;20459;-71
2024/02/02 06:12:42;;;;;;;21.40;17.50;;;5.30;99.90;;;;;;4974607;28;20471;-71
2024/02/02 06:15:09;;;;;;;23.00;19.37;;;5.30;99.90;;;;;;4974915;28;20466;-72
2024/02/02 06:17:36;;;;;;;21.07;18.80;;;5.20;99.90;;;;;;4978688;28;20468;-71
2024/02/02 06:20:04;;;;;;;23.20;19.87;;;5.30;99.90;;;;;;4978300;28;20455;-71
2024/02/02 06:22:32;;;;;;;29.27;24.30;;;5.20;99.90;;;;;;4978153;28;20514;-71
2024/02/02 06:24:59;;;;;;;38.13;22.87;;;5.10;99.90;;;;;;4963831;28;20466;-71
2024/02/02 06:27:27;;;;;;;20.90;18.63;;;5.10;99.90;;;;;;4968767;28;20929;-71
2024/02/02 06:29:54;;;;;;;32.27;17.83;;;5.30;99.90;;;;;;4965250;28;20455;-71
2024/02/02 06:32:22;;;;;;;21.63;16.60;;;5.20;99.90;;;;;;4973052;28;20475;-71
2024/02/02 06:34:55;;;;;;;20.17;18.17;;;5.20;99.90;;;;;;4976499;28;20490;-71
2024/02/02 06:37:21;;;;;;;21.20;16.07;;;5.10;99.90;;;;;;4970990;28;20575;-71
2024/02/02 06:39:51;;;;;;;34.17;14.90;;;5.10;99.90;;;;;;4954867;28;20473;-71
2024/02/02 06:42:18;;;;;;;25.33;15.70;;;5.10;99.90;;;;;;4965528;28;20903;-71
2024/02/02 06:44:45;;;;;;;19.43;15.60;;;5.00;99.90;;;;;;4966897;28;20459;-71
2024/02/02 06:47:12;;;;;;;24.57;16.70;;;5.10;99.90;;;;;;4971397;28;20455;-71
2024/02/02 06:49:39;;;;;;;25.80;16.33;;;5.00;99.90;;;;;;4979348;28;20457;-71
2024/02/02 06:52:06;;;;;;;20.97;14.00;;;5.00;99.90;;;;;;4973504;28;20459;-71
2024/02/02 06:54:32;;;;;;;18.17;12.23;;;5.00;99.90;;;;;;4973976;28;20817;-71
2024/02/02 06:57:01;;;;;;;15.93;11.30;;;5.10;99.90;;;;;;4975307;28;20608;-71
2024/02/02 06:59:27;;;;;;;18.90;11.43;;;5.00;99.90;;;;;;4954279;28;20468;-71
2024/02/02 07:01:54;;;;;;;18.50;10.80;;;5.10;99.90;;;;;;4954368;28;20488;-71
2024/02/02 07:04:21;;;;;;;19.97;11.20;;;5.00;99.90;;;;;;4954677;28;20466;-71
2024/02/02 07:06:48;;;;;;;19.43;9.50;;;5.10;99.90;;;;;;4953969;28;20460;-71
2024/02/02 07:09:29;;;;;;;21.37;8.73;;;5.00;99.90;;;;;;4955820;28;20466;-71
2024/02/02 07:11:59;;;;;;;20.63;7.80;;;5.10;99.90;;;;;;4973718;28;20480;-71
2024/02/02 07:14:50;;;;;;;23.73;8.53;;;5.00;99.90;;;;;;4976335;28;20462;-71
2024/02/02 07:17:35;;;;;;;19.87;7.67;;;4.90;99.90;;;;;;4967751;28;20453;-71
2024/02/02 07:20:04;;;;;;;39.63;10.20;;;4.90;99.90;;;;;;4973302;28;20466;-71
2024/02/02 07:22:37;;;;;;;17.80;7.07;;;4.90;99.90;;;;;;4977696;28;20518;-71
2024/02/02 07:25:06;;;;;;;22.80;8.60;;;4.90;99.90;;;;;;4969758;28;20509;-71
2024/02/02 07:27:53;;;;;;;19.90;9.73;;;4.80;99.90;;;;;;4973129;28;20940;-71
2024/02/02 07:30:51;;;;;;;22.10;8.20;;;4.80;99.90;;;;;;4971625;28;20462;-71
2024/02/02 07:33:30;;;;;;;19.00;7.50;;;4.80;99.90;;;;;;4966917;28;20478;-71
2024/02/02 07:35:59;;;;;;;14.57;6.77;;;4.90;99.90;;;;;;4973437;28;20454;-71
2024/02/02 07:38:45;;;;;;;27.23;6.87;;;4.80;99.90;;;;;;4981499;28;20481;-71
2024/02/02 07:41:14;;;;;;;14.53;5.73;;;4.90;99.90;;;;;;4981330;28;20510;-71
2024/02/02 07:43:41;;;;;;;19.27;6.77;;;4.90;99.90;;;;;;4977804;28;20490;-71
2024/02/02 07:46:08;;;;;;;15.80;5.43;;;5.00;99.90;;;;;;4959540;28;20455;-71
2024/02/02 07:48:37;;;;;;;13.50;6.20;;;5.00;99.90;;;;;;4953825;28;20466;-71
2024/02/02 07:51:05;;;;;;;17.40;5.37;;;5.00;99.90;;;;;;4969481;28;20462;-71
2024/02/02 07:53:32;;;;;;;17.53;5.03;;;5.10;99.90;;;;;;4972580;28;20510;-71
2024/02/02 07:55:58;;;;;;;21.57;7.87;;;5.10;99.90;;;;;;4971735;28;20509;-71
2024/02/02 07:58:25;;;;;;;17.87;6.53;;;5.20;99.90;;;;;;4975037;28;20459;-71
2024/02/02 08:00:52;;;;;;;20.40;6.90;;;5.30;99.90;;;;;;4983565;28;20953;-71
2024/02/02 08:03:19;;;;;;;15.53;5.00;;;5.40;99.90;;;;;;4974003;28;20525;-71
2024/02/02 08:05:48;;;;;;;24.27;4.67;;;5.40;99.90;;;;;;4977959;28;20453;-71
2024/02/02 08:08:14;;;;;;;10.07;4.93;;;5.60;99.90;;;;;;4966693;28;20458;-72
2024/02/02 08:10:43;;;;;;;13.67;4.10;;;5.70;99.90;;;;;;4972537;28;20474;-71
2024/02/02 08:13:10;;;;;;;11.40;4.50;;;5.90;99.90;;;;;;4979882;28;20476;-71
2024/02/02 08:15:38;;;;;;;12.70;4.07;;;6.00;99.90;;;;;;4953529;28;20460;-71
2024/02/02 08:18:05;;;;;;;16.70;3.87;;;6.10;99.90;;;;;;4953317;28;20455;-71
2024/02/02 08:20:32;;;;;;;15.70;5.87;;;6.20;99.80;;;;;;4956964;28;20451;-71
2024/02/02 08:23:00;;;;;;;18.77;7.87;;;6.20;99.10;;;;;;4980664;28;20490;-72
2024/02/02 08:25:27;;;;;;;17.03;5.57;;;6.30;96.70;;;;;;4978019;28;20487;-71
2024/02/02 08:27:54;;;;;;;21.80;5.20;;;6.30;96.60;;;;;;4973796;28;20454;-71
2024/02/02 08:30:23;;;;;;;15.10;6.20;;;6.30;96.60;;;;;;4957561;28;20953;-71
2024/02/02 08:32:52;;;;;;;25.83;9.10;;;6.40;96.70;;;;;;4980819;28;20247;-71
2024/02/02 08:35:20;;;;;;;16.63;5.33;;;6.50;96.70;;;;;;4982519;28;20454;-71
2024/02/02 08:37:47;;;;;;;21.60;5.40;;;6.50;96.70;;;;;;4984275;28;20454;-71
2024/02/02 08:40:33;;;;;;;18.37;7.00;;;6.50;96.70;;;;;;4974904;28;20462;-71
2024/02/02 08:43:00;;;;;;;19.30;6.50;;;6.70;96.80;;;;;;4973626;28;20570;-71
2024/02/02 08:46:06;;;;;;;13.27;4.70;;;6.60;93.50;;;;;;4953446;28;20464;-71
2024/02/02 08:48:45;;;;;;;18.23;3.90;;;6.70;94.60;;;;;;4964856;28;20458;-71
2024/02/02 08:51:45;;;;;;;20.60;7.83;;;6.70;93.50;;;;;;4972749;28;20451;-71
2024/02/02 08:54:33;;;;;;;24.53;4.80;;;6.80;95.10;;;;;;4980712;28;20450;-71
2024/02/02 08:57:43;;;;;;;17.20;5.30;;;6.80;93.70;;;;;;4981972;28;20450;-71
2024/02/02 09:00:15;;;;;;;16.10;5.77;;;6.80;93.50;;;;;;4973147;28;20446;-71
2024/02/02 09:02:54;;;;;;;10.63;4.83;;;6.90;94.40;;;;;;4979385;28;20491;-71
2024/02/02 09:05:22;;;;;;;12.37;3.37;;;7.00;93.90;;;;;;4976537;28;20954;-71
2024/02/02 09:07:52;;;;;;;13.10;4.00;;;7.10;93.60;;;;;;4973970;28;20812;-71
2024/02/02 09:11:10;;;;;;;12.23;3.53;;;7.20;93.40;;;;;;4976072;28;20498;-72
2024/02/02 09:13:40;;;;;;;15.80;4.67;;;7.20;91.60;;;;;;4972696;28;20520;-71
2024/02/02 09:16:08;;;;;;;15.87;3.80;;;7.40;93.00;;;;;;4963346;28;20546;-71
2024/02/02 09:18:38;;;;;;;18.57;3.80;;;7.50;90.40;;;;;;4960567;28;20457;-71
2024/02/02 09:21:07;;;;;;;13.13;4.40;;;7.60;90.50;;;;;;4983887;28;20454;-72
2024/02/02 09:23:35;;;;;;;15.47;3.40;;;7.70;91.90;;;;;;4968138;28;20482;-71
2024/02/02 09:26:09;;;;;;;16.83;4.10;;;7.70;90.50;;;;;;4983952;28;20450;-71
2024/02/02 09:28:45;;;;;;;15.47;4.37;;;7.80;90.60;;;;;;4972604;28;20537;-72
2024/02/02 09:31:17;;;;;;;15.20;4.53;;;7.80;90.60;;;;;;4978051;28;20450;-71
2024/02/02 09:33:46;;;;;;;12.73;3.77;;;7.80;90.60;;;;;;4975738;28;20470;-72
2024/02/02 09:36:14;;;;;;;16.23;3.57;;;7.90;90.60;;;;;;4974833;28;20886;-71
2024/02/02 09:38:41;;;;;;;10.33;3.37;;;8.00;90.60;;;;;;4956085;28;20474;-72
2024/02/02 09:41:39;;;;;;;18.23;4.50;;;8.00;90.60;;;;;;4964291;28;20454;-72
2024/02/02 09:44:21;;;;;;;10.90;3.50;;;8.10;90.70;;;;;;4975538;28;20494;-72
2024/02/02 09:46:57;;;;;;;13.57;4.30;;;8.10;90.70;;;;;;4970160;28;20626;-72
2024/02/02 09:49:36;;;;;;;19.27;3.33;;;8.10;90.70;;;;;;4975514;28;20477;-72
2024/02/02 09:52:15;;;;;;;18.43;3.87;;;8.10;90.70;;;;;;4975850;28;20470;-72
2024/02/02 09:54:52;;;;;;;14.13;3.37;;;8.20;90.70;;;;;;4968754;28;20458;-72
2024/02/02 09:57:29;;;;;;;13.63;3.70;;;8.10;90.70;;;;;;4973664;28;20455;-72
2024/02/02 10:00:04;;;;;;;11.50;4.00;;;8.20;90.70;;;;;;4970205;28;20469;-72
2024/02/02 10:02:49;;;;;;;15.00;3.73;;;8.40;90.80;;;;;;4975045;28;20913;-71
2024/02/02 10:05:23;;;;;;;13.03;3.67;;;8.40;90.80;;;;;;4976364;28;20459;-72
2024/02/02 10:08:02;;;;;;;18.67;5.47;;;8.40;91.10;;;;;;4966630;28;20839;-72
2024/02/02 10:10:46;;;;;;;16.47;3.73;;;8.50;90.80;;;;;;4971614;28;20459;-72
2024/02/02 10:13:24;;;;;;;21.77;4.43;;;8.60;90.90;;;;;;4979584;28;20474;-71
2024/02/02 10:16:13;;;;;;;16.13;3.67;;;8.60;90.90;;;;;;4971781;28;20563;-72
2024/02/02 10:19:07;;;;;;;16.33;3.93;;;8.80;90.90;;;;;;4968250;28;20464;-71
2024/02/02 10:21:47;;;;;;;15.03;5.13;;;8.80;90.90;;;;;;4970444;28;20454;-71
2024/02/02 10:24:35;;;;;;;17.97;5.60;;;8.90;91.00;;;;;;4985039;28;20557;-72
2024/02/02 10:27:20;;;;;;;16.17;5.07;;;9.00;91.00;;;;;;4975408;28;20463;-72
2024/02/02 10:30:04;;;;;;;13.83;3.47;;;9.20;91.10;;;;;;4976758;28;20466;-72
2024/02/02 10:33:00;;;;;;;22.23;4.07;;;9.40;91.20;;;;;;4985774;28;20474;-72
2024/02/02 10:35:36;;;;;;;9.87;3.47;;;9.50;91.20;;;;;;4983449;28;20455;-72
2024/02/02 10:38:19;;;;;;;11.87;4.07;;;9.60;91.20;;;;;;4982801;28;20583;-71
2024/02/02 10:40:55;;;;;;;16.67;4.57;;;9.90;89.00;;;;;;4976476;28;20451;-73
2024/02/02 10:43:33;;;;;;;11.80;3.77;;;9.70;90.30;;;;;;4984277;28;20870;-72
2024/02/02 10:46:17;;;;;;;11.80;3.40;;;10.00;90.90;;;;;;4985997;28;20480;-72
2024/02/02 10:49:07;;;;;;;16.23;4.40;;;10.10;81.20;;;;;;4976067;28;20465;-72
2024/02/02 10:51:43;;;;;;;18.53;4.50;;;10.30;77.30;;;;;;4974231;28;20454;-72
2024/02/02 10:54:20;;;;;;;11.73;3.93;;;10.40;78.10;;;;;;4982546;28;20480;-72
2024/02/02 10:57:07;;;;;;;15.20;4.73;;;10.40;77.30;;;;;;4985468;28;20449;-72
2024/02/02 10:59:43;;;;;;;21.73;7.03;;;10.30;78.00;;;;;;4974063;28;20970;-72
2024/02/02 11:02:20;;;;;;;16.50;5.03;;;10.60;77.50;;;;;;4981957;28;20473;-72
2024/02/02 11:04:58;;;;;;;12.70;3.50;;;10.70;77.60;;;;;;4985311;28;20478;-72
2024/02/02 11:07:28;;;;;;;10.47;4.60;;;10.90;77.80;;;;;;4982485;28;20464;-72
2024/02/02 11:10:02;;;;;;;15.63;4.30;;;11.10;77.70;;;;;;4981658;28;20450;-73
2024/02/02 11:12:41;;;;;;;13.43;4.60;;;11.30;72.20;;;;;;4981351;28;20893;-73
2024/02/02 11:15:20;;;;;;;16.80;4.30;;;11.20;78.00;;;;;;4973363;28;20454;-73
2024/02/02 11:17:57;;;;;;;17.90;5.20;;;11.20;74.10;;;;;;4973434;28;20458;-72
2024/02/02 11:20:32;;;;;;;11.83;3.83;;;11.40;77.90;;;;;;4972553;28;20462;-73
2024/02/02 11:23:02;;;;;;;14.80;4.27;;;10.90;77.70;;;;;;4979981;28;20492;-72
2024/02/02 11:25:37;;;;;;;13.50;4.33;;;10.70;77.40;;;;;;4968713;28;20462;-72
2024/02/02 11:28:05;;;;;;;14.70;4.20;;;10.70;77.50;;;;;;4961723;28;20455;-72
2024/02/02 11:30:43;;;;;;;18.83;4.67;;;10.50;77.40;;;;;;4954256;28;20452;-72
2024/02/02 11:33:24;;;;;;;13.43;4.55;;;10.30;77.20;;;;;;4969541;28;20462;-73
2024/02/02 11:36:03;;;;;;;13.73;5.90;;;10.20;77.20;;;;;;4970180;28;20204;-71
2024/02/02 11:38:43;;;;;;;12.87;3.60;;;10.10;79.70;;;;;;4969588;28;20459;-73
2024/02/02 11:41:19;;;;;;;19.27;4.50;;;10.00;76.90;;;;;;4970048;28;20455;-74
2024/02/02 11:43:47;;;;;;;21.20;6.90;;;10.00;80.30;;;;;;4978166;28;20485;-72
2024/02/02 11:46:15;;;;;;;21.33;5.83;;;10.40;82.60;;;;;;4984065;28;20822;-72
2024/02/02 11:48:43;;;;;;;16.60;4.80;;;10.60;80.40;;;;;;4981560;28;20833;-74
2024/02/02 11:51:12;;;;;;;18.20;4.60;;;10.50;77.70;;;;;;4981584;28;21002;-74
2024/02/02 11:53:45;;;;;;;17.17;6.13;;;10.60;77.50;;;;;;4979589;28;20458;-73
2024/02/02 11:56:16;;;;;;;19.33;6.20;;;10.80;78.30;;;;;;4972389;28;20208;-74
2024/02/02 11:58:46;;;;;;;13.90;5.10;;;10.90;77.80;;;;;;4971479;28;20462;-72
2024/02/02 12:01:27;;;;;;;17.87;6.93;;;10.90;77.80;;;;;;4975280;28;20466;-75
2024/02/02 12:04:12;;;;;;;10.30;4.30;;;10.60;77.50;;;;;;4981031;28;20487;-73
2024/02/02 12:06:51;;;;;;;11.23;4.23;;;10.40;81.90;;;;;;4974023;28;20454;-74
2024/02/02 12:09:25;;;;;;;17.23;4.90;;;10.60;81.40;;;;;;4982822;28;20840;-73
2024/02/02 12:11:54;;;;;;;22.23;9.33;;;10.70;84.80;;;;;;4984303;28;20540;-76
2024/02/02 12:14:26;;;;;;;22.77;6.10;;;11.10;79.90;;;;;;4982572;28;20876;-75
2024/02/02 12:16:54;;;;;;;17.87;7.33;;;11.30;79.00;;;;;;4980897;28;20513;-76
2024/02/02 12:19:21;;;;;;;12.80;4.87;;;11.30;78.20;;;;;;4982514;28;20462;-75
2024/02/02 12:21:49;;;;;;;10.40;4.80;;;11.10;78.00;;;;;;4978270;28;20546;-76
2024/02/02 12:24:16;;;;;;;15.50;4.67;;;11.20;81.70;;;;;;4982233;28;21014;-75
2024/02/02 12:26:44;;;;;;;14.20;5.23;;;11.10;78.00;;;;;;4984368;28;20454;-77
2024/02/02 12:29:11;;;;;;;14.93;6.37;;;11.10;78.00;;;;;;4983647;28;21026;-74
2024/02/02 12:31:39;;;;;;;14.67;4.73;;;11.30;80.70;;;;;;4981413;28;20451;-73
2024/02/02 12:34:06;;;;;;;12.20;6.10;;;10.90;85.30;;;;;;4985055;28;20505;-75
2024/02/02 12:36:33;;;;;;;17.73;6.00;;;10.50;85.90;;;;;;4977213;28;20455;-73
2024/02/02 12:39:05;;;;;;;17.73;7.40;;;10.60;85.30;;;;;;4984910;28;20477;-75
2024/02/02 12:41:32;;;;;;;15.93;5.60;;;10.50;86.80;;;;;;4987834;28;20449;-74
2024/02/02 12:44:00;;;;;;;16.23;5.33;;;10.50;89.60;;;;;;4987844;28;20880;-75
2024/02/02 12:46:27;;;;;;;18.57;6.10;;;10.50;85.30;;;;;;4985189;28;20510;-77
2024/02/02 12:48:53;;;;;;;18.38;7.47;;;10.80;87.00;;;;;;4983776;28;20457;-75
2024/02/02 12:51:20;;;;;;;13.10;6.10;;;11.10;86.50;;;;;;4976310;28;20222;-74